createdAt,value
2022-08-02T00:04:26.818Z,3.33
2022-08-02T00:09:32.145Z,2.33
2022-08-02T00:12:06.576Z,1.83
2022-08-02T00:14:39.605Z,2.40
2022-08-02T00:19:45.434Z,3.23
2022-08-02T00:22:18.432Z,2.33
2022-08-02T00:27:26.343Z,2.65
2022-08-02T00:29:59.148Z,3.28
2022-08-02T00:32:31.826Z,2.63
2022-08-02T00:35:04.957Z,2.17
2022-08-02T00:37:40.518Z,2.78
2022-08-02T00:40:13.612Z,2.28
2022-08-02T00:42:47.739Z,2.13
2022-08-02T00:45:20.509Z,2.08
2022-08-02T00:48:14.090Z,2.20
2022-08-02T00:50:46.745Z,3.63
2022-08-02T00:53:19.564Z,3.47
2022-08-02T00:55:52.458Z,2.42
2022-08-02T01:01:01.050Z,2.13
2022-08-02T01:03:33.802Z,2.92
2022-08-02T01:06:14.380Z,3.38
2022-08-02T01:08:47.118Z,2.42
2022-08-02T01:11:20.005Z,4.93
2022-08-02T01:13:54.551Z,1.70
2022-08-02T01:16:32.068Z,2.47
2022-08-02T01:19:16.201Z,1.98
2022-08-02T01:22:03.124Z,2.10
2022-08-02T01:24:55.706Z,2.58
2022-08-02T01:27:40.031Z,3.78
2022-08-02T01:30:15.622Z,4.20
2022-08-02T01:32:54.642Z,2.90
2022-08-02T01:35:50.914Z,3.67
2022-08-02T01:38:31.975Z,2.15
2022-08-02T01:41:06.239Z,1.70
2022-08-02T01:43:41.389Z,1.50
2022-08-02T01:46:17.628Z,3.17
2022-08-02T01:48:51.717Z,3.03
2022-08-02T01:51:42.233Z,2.58
2022-08-02T01:54:18.479Z,1.58
2022-08-02T01:56:52.246Z,1.67
2022-08-02T01:59:27.193Z,3.17
2022-08-02T02:02:02.557Z,2.55
2022-08-02T02:04:36.966Z,2.88
2022-08-02T02:07:10.742Z,1.77
2022-08-02T02:09:50.726Z,2.45
2022-08-02T02:12:25.594Z,2.15
2022-08-02T02:15:01.225Z,3.65
2022-08-02T02:17:50.751Z,2.42
2022-08-02T02:20:30.176Z,2.92
2022-08-02T02:23:03.163Z,2.97
2022-08-02T02:25:41.783Z,2.15
2022-08-02T02:28:24.401Z,1.98
2022-08-02T02:31:03.101Z,1.92
2022-08-02T02:33:49.733Z,2.00
2022-08-02T02:36:23.857Z,3.40
2022-08-02T02:39:00.558Z,1.83
2022-08-02T02:41:35.064Z,2.95
2022-08-02T02:44:11.050Z,2.85
2022-08-02T02:46:45.344Z,2.80
2022-08-02T02:49:21.275Z,2.28
2022-08-02T02:51:55.203Z,1.33
2022-08-02T02:54:34.598Z,2.97
2022-08-02T02:57:09.315Z,2.00
2022-08-02T02:59:49.154Z,2.70
2022-08-02T03:02:23.058Z,1.83
2022-08-02T03:04:58.317Z,1.98
2022-08-02T03:07:33.502Z,3.28
2022-08-02T03:10:08.074Z,2.05
2022-08-02T03:12:40.872Z,3.88
2022-08-02T03:15:15.079Z,2.88
2022-08-02T03:17:48.317Z,2.88
2022-08-02T03:20:23.555Z,1.20
2022-08-02T03:22:56.295Z,3.85
2022-08-02T03:25:28.965Z,2.67
2022-08-02T03:28:01.632Z,2.47
2022-08-02T03:30:34.529Z,2.58
2022-08-02T03:33:07.252Z,1.90
2022-08-02T03:35:42.615Z,2.22
2022-08-02T03:38:18.516Z,2.53
2022-08-02T03:40:52.417Z,3.00
2022-08-02T03:43:28.666Z,3.22
2022-08-02T03:46:03.940Z,2.85
2022-08-02T03:48:39.066Z,2.92
2022-08-02T03:51:14.085Z,2.65
2022-08-02T03:53:47.490Z,3.60
2022-08-02T03:56:22.990Z,3.25
2022-08-02T03:59:07.106Z,5.07
2022-08-02T04:01:40.345Z,3.50
2022-08-02T04:04:13.668Z,2.30
2022-08-02T04:06:47.708Z,3.55
2022-08-02T04:09:20.777Z,2.83
2022-08-02T04:11:53.525Z,3.40
2022-08-02T04:14:27.627Z,3.35
2022-08-02T04:17:05.486Z,2.42
2022-08-02T04:19:41.714Z,3.33
2022-08-02T04:22:19.437Z,3.35
2022-08-02T04:24:55.418Z,3.97
2022-08-02T04:27:50.929Z,8.32
2022-08-02T04:30:23.017Z,3.67
2022-08-02T04:32:56.335Z,5.15
2022-08-02T04:35:29.401Z,4.38
2022-08-02T04:38:09.913Z,2.72
2022-08-02T04:40:52.250Z,3.25
2022-08-02T04:43:25.186Z,1.73
2022-08-02T04:45:58.050Z,2.70
2022-08-02T04:48:30.834Z,2.60
2022-08-02T04:51:03.511Z,3.78
2022-08-02T04:53:37.666Z,2.85
2022-08-02T04:56:11.243Z,4.97
2022-08-02T04:58:44.079Z,8.13
2022-08-02T05:01:17.010Z,9.30
2022-08-02T05:06:23.860Z,10.60
2022-08-02T05:08:58.210Z,6.53
2022-08-02T05:11:36.138Z,6.18
2022-08-02T05:14:09.674Z,4.30
2022-08-02T05:16:42.450Z,6.93
2022-08-02T05:19:15.254Z,9.23
2022-08-02T05:21:48.265Z,5.57
2022-08-02T05:24:22.310Z,5.22
2022-08-02T05:26:55.395Z,8.93
2022-08-02T05:32:01.456Z,6.57
2022-08-02T05:34:34.167Z,7.13
2022-08-02T05:39:55.536Z,7.10
2022-08-02T05:42:32.103Z,8.52
2022-08-02T05:45:06.009Z,8.57
2022-08-02T05:47:39.656Z,10.85
2022-08-02T05:50:12.506Z,8.70
2022-08-02T05:52:49.732Z,11.40
2022-08-02T05:55:28.374Z,12.45
2022-08-02T05:58:06.917Z,10.75
2022-08-02T06:00:42.158Z,13.32
2022-08-02T06:03:25.528Z,9.13
2022-08-02T06:06:01.709Z,11.15
2022-08-02T06:08:43.437Z,14.73
2022-08-02T06:11:23.469Z,14.75
2022-08-02T06:13:56.721Z,17.58
2022-08-02T06:16:32.060Z,23.65
2022-08-02T06:19:06.487Z,16.67
2022-08-02T06:22:31.753Z,19.08
2022-08-02T06:24:35.514Z,20.20
2022-08-02T06:27:09.708Z,24.70
2022-08-02T06:29:44.243Z,21.77
2022-08-02T06:32:19.133Z,23.23
2022-08-02T06:34:51.845Z,20.02
2022-08-02T06:37:31.741Z,25.98
2022-08-02T06:40:15.826Z,17.90
2022-08-02T06:42:56.995Z,20.23
2022-08-02T06:45:29.838Z,21.63
2022-08-02T06:48:03.458Z,21.42
2022-08-02T06:50:38.252Z,20.25
2022-08-02T06:53:12.279Z,23.52
2022-08-02T06:55:45.097Z,21.25
2022-08-02T06:58:22.006Z,18.98
2022-08-02T07:00:54.870Z,22.77
2022-08-02T07:03:27.933Z,22.73
2022-08-02T07:06:01.391Z,26.60
2022-08-02T07:08:36.105Z,18.88
2022-08-02T07:11:10.669Z,18.35
2022-08-02T07:13:46.354Z,18.98
2022-08-02T07:16:19.127Z,20.08
2022-08-02T07:18:51.790Z,25.00
2022-08-02T07:21:56.743Z,14.05
2022-08-02T07:24:17.194Z,19.50
2022-08-02T07:27:10.713Z,16.95
2022-08-02T07:29:46.445Z,16.35
2022-08-02T07:32:21.642Z,17.30
2022-08-02T07:34:55.621Z,18.08
2022-08-02T07:37:54.115Z,16.38
2022-08-02T07:40:25.367Z,11.65
2022-08-02T07:43:03.592Z,16.25
2022-08-02T07:45:55.871Z,17.55
2022-08-02T07:48:30.865Z,18.35
2022-08-02T07:51:03.576Z,16.77
2022-08-02T07:53:50.723Z,17.00
2022-08-02T07:56:24.623Z,19.10
2022-08-02T08:01:31.538Z,16.25
2022-08-02T08:04:04.790Z,15.82
2022-08-02T08:06:37.829Z,13.77
2022-08-02T08:09:10.871Z,14.68
2022-08-02T08:14:17.170Z,11.73
2022-08-02T08:16:51.206Z,11.18
2022-08-02T08:19:43.908Z,11.00
2022-08-02T08:22:17.636Z,9.73
2022-08-02T08:24:51.337Z,13.75
2022-08-02T08:27:24.264Z,10.38
2022-08-02T08:29:57.272Z,9.38
2022-08-02T08:32:31.389Z,9.82
2022-08-02T08:35:06.963Z,10.05
2022-08-02T08:37:40.552Z,7.32
2022-08-02T08:40:19.334Z,7.70
2022-08-02T08:42:53.160Z,9.05
2022-08-02T08:45:26.250Z,8.57
2022-08-02T08:48:02.773Z,6.88
2022-08-02T08:50:39.480Z,6.43
2022-08-02T08:53:13.764Z,5.57
2022-08-02T08:55:46.884Z,8.20
2022-08-02T09:00:52.273Z,6.15
2022-08-02T09:03:26.872Z,7.05
2022-08-02T09:06:07.168Z,7.78
2022-08-02T09:08:39.845Z,8.77
2022-08-02T09:11:17.711Z,6.50
2022-08-02T09:13:52.427Z,11.50
2022-08-02T09:16:30.827Z,8.55
2022-08-02T09:19:18.881Z,8.02
2022-08-02T09:21:52.630Z,7.75
2022-08-02T09:24:25.961Z,9.02
2022-08-02T09:27:11.926Z,6.97
2022-08-02T09:30:12.666Z,9.75
2022-08-02T09:32:46.373Z,10.90
2022-08-02T09:36:05.364Z,8.20
2022-08-02T09:38:27.936Z,9.27
2022-08-02T09:41:01.479Z,8.13
2022-08-02T09:44:03.611Z,9.63
2022-08-02T09:46:36.252Z,11.38
2022-08-02T09:49:11.493Z,10.48
2022-08-02T09:51:52.730Z,10.30
2022-08-02T09:54:29.130Z,13.77
2022-08-02T09:57:03.104Z,8.40
2022-08-02T09:59:35.871Z,8.95
2022-08-02T10:04:55.349Z,8.05
2022-08-02T10:07:30.291Z,9.05
2022-08-02T10:10:03.542Z,6.88
2022-08-02T10:12:37.849Z,8.23
2022-08-02T10:15:17.570Z,6.80
2022-08-02T10:17:50.634Z,9.70
2022-08-02T10:22:59.770Z,9.43
2022-08-02T10:25:33.356Z,11.25
2022-08-02T10:28:07.686Z,7.47
2022-08-02T10:30:43.721Z,8.25
2022-08-02T10:33:20.028Z,5.88
2022-08-02T10:36:04.504Z,9.40
2022-08-02T10:38:41.996Z,7.18
2022-08-02T10:41:14.796Z,6.25
2022-08-02T10:43:49.959Z,6.43
2022-08-02T10:46:32.820Z,5.78
2022-08-02T10:52:08.012Z,5.85
2022-08-02T10:54:44.526Z,6.07
2022-08-02T10:57:20.221Z,6.68
2022-08-02T10:59:56.232Z,4.70
2022-08-02T11:02:38.048Z,5.07
2022-08-02T11:05:14.205Z,5.43
2022-08-02T11:07:49.389Z,8.70
2022-08-02T11:10:35.712Z,5.20
2022-08-02T11:13:11.848Z,7.25
2022-08-02T11:15:57.066Z,5.00
2022-08-02T11:19:03.989Z,4.70
2022-08-02T11:21:44.414Z,6.38
2022-08-02T11:24:32.277Z,4.38
2022-08-02T11:27:09.622Z,4.80
2022-08-02T11:29:44.691Z,6.82
2022-08-02T11:32:19.502Z,5.85
2022-08-02T11:34:54.812Z,6.63
2022-08-02T11:37:30.944Z,6.68
2022-08-02T11:40:04.025Z,5.93
2022-08-02T11:42:40.187Z,5.65
2022-08-02T11:45:21.338Z,6.13
2022-08-02T11:47:55.606Z,4.75
2022-08-02T11:50:30.359Z,5.63
2022-08-02T11:53:03.320Z,5.55
2022-08-02T11:55:36.069Z,7.78
2022-08-02T11:58:11.656Z,4.43
2022-08-02T12:00:47.037Z,8.32
2022-08-02T12:03:20.197Z,5.50
2022-08-02T12:06:04.712Z,6.95
2022-08-02T12:08:38.928Z,6.63
2022-08-02T12:11:11.634Z,8.38
2022-08-02T12:13:57.035Z,6.07
2022-08-02T12:16:53.422Z,7.72
2022-08-02T12:19:27.862Z,11.80
2022-08-02T12:22:18.770Z,5.07
2022-08-02T12:24:52.837Z,7.15
2022-08-02T12:27:30.941Z,8.40
2022-08-02T12:30:08.295Z,7.10
2022-08-02T12:32:41.823Z,8.82
2022-08-02T12:35:25.972Z,7.28
2022-08-02T12:37:58.916Z,6.70
2022-08-02T12:40:34.439Z,5.70
2022-08-02T12:43:09.786Z,12.57
2022-08-02T12:45:50.538Z,6.05
2022-08-02T12:48:37.714Z,6.95
2022-08-02T12:51:21.540Z,7.15
2022-08-02T12:53:59.585Z,6.78
2022-08-02T12:56:38.205Z,8.13
2022-08-02T12:59:11.334Z,10.38
2022-08-02T13:01:45.971Z,9.85
2022-08-02T13:04:18.855Z,8.52
2022-08-02T13:06:51.609Z,7.68
2022-08-02T13:09:29.135Z,7.30
2022-08-02T13:12:02.113Z,8.40
2022-08-02T13:14:41.761Z,7.15
2022-08-02T13:17:16.362Z,8.88
2022-08-02T13:19:51.061Z,11.68
2022-08-02T13:22:26.076Z,11.48
2022-08-02T13:25:01.485Z,7.15
2022-08-02T13:27:34.818Z,9.65
2022-08-02T13:30:08.704Z,8.15
2022-08-02T13:32:42.790Z,8.98
2022-08-02T13:35:18.236Z,5.20
2022-08-02T13:37:51.236Z,7.75
2022-08-02T13:40:24.127Z,9.50
2022-08-02T13:42:57.601Z,6.43
2022-08-02T13:45:30.263Z,5.15
2022-08-02T13:48:16.646Z,7.35
2022-08-02T13:50:51.367Z,7.57
2022-08-02T13:53:24.173Z,5.82
2022-08-02T13:55:58.847Z,7.57
2022-08-02T13:58:31.654Z,10.23
2022-08-02T14:01:04.469Z,5.30
2022-08-02T14:04:07.802Z,6.00
2022-08-02T14:06:31.288Z,7.22
2022-08-02T14:09:04.145Z,4.10
2022-08-02T14:11:36.983Z,6.63
2022-08-02T14:14:16.057Z,8.57
2022-08-02T14:16:49.828Z,7.57
2022-08-02T14:19:24.168Z,10.10
2022-08-02T14:22:10.863Z,8.57
2022-08-02T14:24:45.168Z,10.13
2022-08-02T14:27:17.854Z,9.07
2022-08-02T14:29:51.311Z,10.70
2022-08-02T14:32:28.042Z,7.68
2022-08-02T14:35:07.395Z,10.68
2022-08-02T14:37:40.144Z,6.68
2022-08-02T14:40:27.872Z,9.13
2022-08-02T14:43:01.721Z,10.05
2022-08-02T14:45:36.624Z,10.00
2022-08-02T14:48:13.856Z,7.75
2022-08-02T14:50:47.906Z,8.02
2022-08-02T14:53:20.669Z,6.05
2022-08-02T14:55:53.457Z,7.78
2022-08-02T14:58:26.244Z,5.53
2022-08-02T15:00:59.097Z,9.20
2022-08-02T15:03:31.987Z,5.43
2022-08-02T15:06:17.977Z,9.73
2022-08-02T15:08:50.739Z,6.47
2022-08-02T15:11:23.444Z,6.88
2022-08-02T15:13:59.117Z,9.48
2022-08-02T15:16:55.626Z,7.47
2022-08-02T15:19:56.672Z,6.60
2022-08-02T15:22:23.022Z,14.90
2022-08-02T15:24:55.744Z,11.43
2022-08-02T15:27:28.587Z,10.55
2022-08-02T15:30:01.296Z,10.82
2022-08-02T15:32:33.983Z,8.90
2022-08-02T15:35:07.898Z,10.25
2022-08-02T15:37:42.015Z,10.07
2022-08-02T15:40:14.787Z,10.90
2022-08-02T15:42:47.699Z,10.80
2022-08-02T15:45:20.402Z,10.32
2022-08-02T15:47:53.062Z,13.05
2022-08-02T15:50:25.797Z,11.57
2022-08-02T15:52:59.894Z,12.90
2022-08-02T15:55:39.871Z,10.88
2022-08-02T15:58:26.401Z,22.27
2022-08-02T16:00:59.887Z,10.57
2022-08-02T16:03:32.591Z,14.27
2022-08-02T16:06:05.462Z,14.85
2022-08-02T16:08:51.703Z,11.32
2022-08-02T16:11:27.499Z,14.13
2022-08-02T16:14:00.199Z,11.40
2022-08-02T16:16:34.984Z,11.98
2022-08-02T16:19:46.499Z,14.98
2022-08-02T16:22:01.326Z,10.45
2022-08-02T16:24:35.387Z,12.15
2022-08-02T16:27:09.396Z,9.15
2022-08-02T16:29:42.143Z,10.52
2022-08-02T16:32:16.421Z,7.82
2022-08-02T16:35:07.854Z,10.05
2022-08-02T16:37:51.550Z,8.35
2022-08-02T16:40:27.055Z,9.05
2022-08-02T16:43:00.353Z,11.80
2022-08-02T16:45:33.119Z,9.27
2022-08-02T16:48:07.691Z,8.43
2022-08-02T16:50:46.299Z,7.57
2022-08-02T16:53:36.249Z,4.95
2022-08-02T16:56:12.195Z,9.50
2022-08-02T16:58:47.947Z,7.57
2022-08-02T17:01:27.365Z,7.00
2022-08-02T17:04:00.577Z,4.13
2022-08-02T17:06:33.245Z,5.95
2022-08-02T17:09:06.405Z,5.15
2022-08-02T17:11:45.511Z,4.82
2022-08-02T17:14:19.688Z,8.35
2022-08-02T17:16:52.947Z,5.25
2022-08-02T17:19:26.019Z,7.43
2022-08-02T17:21:58.762Z,5.35
2022-08-02T17:24:31.526Z,5.50
2022-08-02T17:27:05.688Z,5.05
2022-08-02T17:29:42.136Z,5.50
2022-08-02T17:32:15.518Z,5.18
2022-08-02T17:35:00.050Z,4.50
2022-08-02T17:37:41.570Z,7.88
2022-08-02T17:40:14.712Z,8.68
2022-08-02T17:42:53.939Z,6.93
2022-08-02T17:45:27.956Z,11.45
2022-08-02T17:48:19.395Z,5.05
2022-08-02T17:51:01.968Z,6.88
2022-08-02T17:56:09.261Z,6.45
2022-08-02T17:58:53.710Z,6.90
2022-08-02T18:01:26.868Z,4.35
2022-08-02T18:04:05.099Z,10.07
2022-08-02T18:06:39.300Z,8.13
2022-08-02T18:09:12.634Z,6.45
2022-08-02T18:11:52.014Z,7.32
2022-08-02T18:14:27.406Z,5.85
2022-08-02T18:17:00.203Z,6.30
2022-08-02T18:19:42.334Z,5.93
2022-08-02T18:22:26.581Z,6.72
2022-08-02T18:24:59.559Z,6.35
2022-08-02T18:30:08.542Z,5.97
2022-08-02T18:33:56.891Z,7.05
2022-08-02T18:35:34.032Z,6.40
2022-08-02T18:38:11.009Z,4.57
2022-08-02T18:40:44.955Z,4.60
2022-08-02T18:43:25.355Z,5.20
2022-08-02T18:46:05.687Z,5.32
2022-08-02T18:48:48.359Z,4.70
2022-08-02T18:51:21.253Z,5.35
2022-08-02T18:53:54.313Z,3.80
2022-08-02T18:56:27.216Z,2.80
2022-08-02T18:59:05.605Z,2.28
2022-08-02T19:01:50.282Z,7.32
2022-08-02T19:04:27.863Z,3.85
2022-08-02T19:07:07.530Z,3.65
2022-08-02T19:09:40.985Z,7.38
2022-08-02T19:12:14.170Z,4.35
2022-08-02T19:14:48.304Z,4.80
2022-08-02T19:17:55.565Z,7.95
2022-08-02T19:20:19.345Z,7.18
2022-08-02T19:22:53.530Z,6.40
2022-08-02T19:25:27.865Z,2.65
2022-08-02T19:28:00.968Z,5.88
2022-08-02T19:30:34.830Z,3.90
2022-08-02T19:33:09.838Z,4.95
2022-08-02T19:38:49.032Z,4.00
2022-08-02T19:41:22.437Z,5.25
2022-08-02T19:44:23.977Z,4.30
2022-08-02T19:46:57.286Z,4.57
2022-08-02T19:49:40.103Z,5.60
2022-08-02T19:56:00.188Z,6.13
2022-08-02T19:58:03.366Z,5.55
2022-08-02T20:00:36.321Z,5.35
2022-08-02T20:03:10.333Z,7.03
2022-08-02T20:05:50.455Z,5.88
2022-08-02T20:08:31.807Z,7.82
2022-08-02T20:11:15.040Z,10.23
2022-08-02T20:13:52.173Z,9.50
2022-08-02T20:16:27.813Z,9.70
2022-08-02T20:19:01.520Z,9.95
2022-08-02T20:21:37.792Z,10.85
2022-08-02T20:24:15.865Z,8.52
2022-08-02T20:26:48.950Z,7.50
2022-08-02T20:29:43.269Z,5.75
2022-08-02T20:32:21.439Z,6.00
2022-08-02T20:34:55.856Z,8.88
2022-08-02T20:37:55.914Z,5.22
2022-08-02T20:40:27.647Z,8.52
2022-08-02T20:43:01.005Z,9.10
2022-08-02T20:45:33.936Z,8.85
2022-08-02T20:48:07.706Z,7.75
2022-08-02T20:50:52.214Z,8.27
2022-08-02T20:53:30.065Z,6.35
2022-08-02T20:56:03.115Z,7.00
2022-08-02T21:03:42.151Z,7.18
2022-08-02T21:06:17.065Z,5.78
2022-08-02T21:08:51.577Z,8.15
2022-08-02T21:11:25.542Z,8.20
2022-08-02T21:14:08.749Z,5.23
2022-08-02T21:16:42.012Z,7.60
2022-08-02T21:19:15.931Z,6.85
2022-08-02T21:21:48.734Z,4.50
2022-08-02T21:24:24.693Z,5.78
2022-08-02T21:26:58.128Z,10.63
2022-08-02T21:29:33.291Z,6.63
2022-08-02T21:32:06.876Z,5.72
2022-08-02T21:34:40.411Z,8.82
2022-08-02T21:39:51.340Z,7.97
2022-08-02T21:42:28.650Z,9.02
2022-08-02T21:45:04.941Z,8.93
2022-08-02T21:47:51.462Z,5.63
2022-08-02T21:50:27.063Z,7.72
2022-08-02T21:53:00.437Z,5.65
2022-08-02T21:56:01.067Z,9.65
2022-08-02T21:58:28.402Z,7.47
2022-08-02T22:03:34.581Z,10.75
2022-08-02T22:06:08.224Z,8.70
2022-08-02T22:14:08.047Z,9.27
2022-08-02T22:19:14.016Z,6.43
2022-08-02T22:24:40.062Z,7.45
2022-08-02T22:27:17.506Z,6.63
2022-08-02T22:29:52.686Z,3.63
2022-08-02T22:32:43.449Z,9.80
2022-08-02T22:35:21.402Z,5.75
2022-08-02T22:38:15.434Z,7.18
2022-08-02T22:40:48.266Z,5.47
2022-08-02T22:43:23.642Z,5.22
2022-08-02T22:45:56.736Z,8.88
2022-08-02T22:51:14.435Z,10.23
2022-08-02T22:53:48.449Z,9.23
2022-08-02T22:56:22.109Z,8.85
2022-08-02T22:58:52.547Z,3.28
2022-08-02T22:59:04.209Z,12.23
2022-08-02T22:59:04.668Z,6.40
2022-08-02T22:59:10.285Z,4.50
2022-08-02T23:01:48.692Z,8.95
2022-08-02T23:06:54.505Z,6.30
2022-08-02T23:12:00.198Z,11.90
2022-08-02T23:17:25.982Z,7.25
2022-08-02T23:19:59.113Z,8.50
2022-08-02T23:22:33.165Z,8.27
2022-08-02T23:25:07.890Z,10.30
2022-08-02T23:27:49.618Z,5.90
2022-08-02T23:30:25.413Z,8.20
2022-08-02T23:33:00.681Z,9.77
2022-08-02T23:35:35.172Z,8.77
2022-08-02T23:40:41.327Z,8.68
2022-08-02T23:43:15.439Z,11.52
2022-08-02T23:45:49.741Z,12.90
2022-08-02T23:48:22.799Z,6.22
2022-08-02T23:53:30.173Z,11.23
2022-08-02T23:56:03.263Z,9.32
2022-08-02T23:58:36.413Z,10.27
